METAR Data
IDs: Format: Raw Decoded Include TAF

Data at: 0254 UTC 20 Jan 2022

KFMY 200153Z 00000KT 10SM CLR 17/12 A3014 RMK AO2 SLP209 T01670117
KFMY 200053Z 00000KT 10SM CLR 17/11 A3013 RMK AO2 SLP206 T01720111
KFMY 192353Z 00000KT 10SM SCT055 20/11 A3014 RMK AO2 SLP206 T02000111 10250 20194 50002
KFMY 192253Z 24007KT 10SM BKN060 21/11 A3014 RMK AO2 SLP209 T02110111
KFMY 192153Z 24007KT 10SM BKN060 22/11 A3014 RMK AO2 SLP207 T02220111
KFMY 192053Z AUTO 17006KT 10SM FEW055 23/10 A3013 RMK AO2 SLP205 T02330100 55011
KFMY 191953Z 11010KT 10SM BKN049 24/11 A3013 RMK AO2 SLP204 T02440111
KFMY 191853Z 15009G15KT 10SM FEW047 23/11 A3014 RMK AO2 SLP209 T02330111
KFMY 191753Z 13012G18KT 10SM CLR 23/11 A3016 RMK AO2 SLP216 T02280106 10233 20094 58023 $
KFMY 191653Z 12009KT 10SM CLR 22/11 A3020 RMK AO2 SLP230 T02220106 $
KFMY 191553Z COR 07007KT 10SM CLR 21/11 A3023 RMK AO2 SLP237 T02060111 $
KFMY 191453Z 08007KT 10SM CLR 17/10 A3023 RMK AO2 SLP239 T01720100 50011 $
KFMY 191353Z 08004KT 10SM CLR 14/07 A3023 RMK AO2 SLP240 T01440072 $
KFMY 191253Z 06004KT 10SM CLR 11/04 A3022 RMK AO2 SLP234 T01060044 $
KFMY 191153Z 07006KT 10SM CLR 09/04 A3020 RMK AO2 SLP228 T00940039 10100 20089 53005 $
KFMY 191053Z AUTO 06007KT 10SM CLR 09/04 A3019 RMK AO2 SLP224 T00940044 $
KFMY 190953Z AUTO 06006KT 10SM CLR 09/06 A3018 RMK AO2 SLP220 T00940056
KFMY 190853Z AUTO 06006KT 10SM CLR 09/07 A3019 RMK AO2 SLP223 T00940067 56007
KFMY 190753Z AUTO 07003KT 10SM CLR 09/06 A3019 RMK AO2 SLP224 T00890061
KFMY 190653Z AUTO 06004KT 10SM CLR 09/06 A3019 RMK AO2 SLP226 T00940061
KFMY 190553Z AUTO 07003KT 10SM CLR 10/05 A3021 RMK AO2 SLP230 T01000050 10156 20100 51000
KFMY 190453Z AUTO 06006KT 10SM CLR 11/03 A3020 RMK AO2 SLP229 T01060033 402000094
KFMY 190353Z AUTO 06006KT 10SM CLR 12/03 A3022 RMK AO2 SLP233 T01170028
KFMY 190253Z 08003KT 10SM CLR 12/03 A3021 RMK AO2 SLP230 T01170028 51010
KFMY 190153Z 09004KT 10SM CLR 12/03 A3021 RMK AO2 SLP230 T01220033
KFMY 190053Z 06005KT 10SM CLR 14/03 A3020 RMK AO2 SLP227 T01390033
KFMY 182353Z 04004KT 10SM CLR 16/04 A3018 RMK AO2 SLP220 T01560039 10200 20150 53015
KFMY 182253Z 05006KT 10SM CLR 17/05 A3016 RMK AO2 SLP214 T01670050
KFMY 182153Z 03008KT 10SM CLR 19/04 A3015 RMK AO2 SLP210 T01940044
KFMY 182053Z VRB03KT 10SM CLR 19/05 A3013 RMK AO2 SLP205 T01940050 56015
KFMY 181953Z 05006KT 10SM CLR 19/05 A3013 RMK AO2 SLP206 T01940050
KFMY 181853Z 03007KT 10SM CLR 19/05 A3015 RMK AO2 SLP211 T01890050
KFMY 181753Z 05005KT 10SM CLR 18/07 A3017 RMK AO2 SLP219 T01780067 10183 20100 58016
KFMY 181653Z COR 10SM CLR 17/07 A3020 RMK AO2 SLP227 T01670067
KFMY 181553Z 05006KT 10SM CLR 15/06 A3022 RMK AO2 SLP234 T01500061